Terminal Aerodrome Forecast
Issued by NWS

Home | Current Version | Previous Version | Text Only | Print | Product List | Glossary On
Versions: 1 2 3 4 5 6 7 8 9 10 11 12 13 14 15
000
FTUS43 KGRB 261700
TAFMTW
TAF
KMTW 261727Z 2618/2718 04008G14KT P6SM SKC
     FM270000 02006KT P6SM SCT080
     FM270500 36007KT P6SM SCT060
     FM271500 03010G17KT P6SM SCT100=

USA.gov is the U.S. government's official web portal to all federal, state and local government web resources and services.